Terminal Aerodrome Forecast
Issued by NWS

Home | Current Version | Previous Version | Text Only | Print | Product List | Glossary On
Versions: 1 2 3 4 5 6 7 8 9 10 11 12 13 14 15
240
FTUS45 KABQ 231726
TAFTCC
TAF
KTCC 231726Z 2318/2418 20013G21KT P6SM SKC
     FM240100 15015KT P6SM SCT150
     FM240600 20007KT P6SM FEW120
     FM241000 22010KT P6SM FEW100
     FM241500 02016G26KT P6SM SCT080=

USA.gov is the U.S. government's official web portal to all federal, state and local government web resources and services.